sensor_id;sensor_type;location;lat;lon;timestamp;P1;durP1;ratioP1;P2;durP2;ratioP2
59702;SDS011;45570;48.782;8.332;2022-08-30T05:46:26;7.78;;;6.15;;
59702;SDS011;45570;48.782;8.332;2022-08-30T05:49:04;9.52;;;6.25;;
59702;SDS011;45570;48.782;8.332;2022-08-30T05:51:34;11.38;;;6.93;;
59702;SDS011;45570;48.782;8.332;2022-08-30T05:59:29;7.18;;;5.68;;
59702;SDS011;45570;48.782;8.332;2022-08-30T06:01:58;9.02;;;6.00;;
59702;SDS011;45570;48.782;8.332;2022-08-30T06:04:27;7.43;;;5.75;;
59702;SDS011;45570;48.782;8.332;2022-08-30T06:06:56;6.25;;;5.65;;
59702;SDS011;45570;48.782;8.332;2022-08-30T06:09:24;7.28;;;6.30;;
59702;SDS011;45570;48.782;8.332;2022-08-30T06:11:53;7.28;;;5.80;;
59702;SDS011;45570;48.782;8.332;2022-08-30T06:14:24;8.40;;;6.40;;
59702;SDS011;45570;48.782;8.332;2022-08-30T06:16:53;7.55;;;5.78;;
59702;SDS011;45570;48.782;8.332;2022-08-30T06:19:23;6.68;;;6.03;;
59702;SDS011;45570;48.782;8.332;2022-08-30T06:21:52;7.70;;;6.03;;
59702;SDS011;45570;48.782;8.332;2022-08-30T06:24:21;6.35;;;5.60;;
59702;SDS011;45570;48.782;8.332;2022-08-30T06:27:10;7.35;;;6.03;;
59702;SDS011;45570;48.782;8.332;2022-08-30T06:29:40;6.75;;;6.10;;
59702;SDS011;45570;48.782;8.332;2022-08-30T06:32:09;7.65;;;6.82;;
59702;SDS011;45570;48.782;8.332;2022-08-30T06:34:37;6.57;;;5.88;;
59702;SDS011;45570;48.782;8.332;2022-08-30T06:37:06;7.38;;;5.47;;
59702;SDS011;45570;48.782;8.332;2022-08-30T06:39:35;7.07;;;5.55;;
59702;SDS011;45570;48.782;8.332;2022-08-30T06:42:04;6.90;;;6.13;;
59702;SDS011;45570;48.782;8.332;2022-08-30T06:44:34;6.78;;;5.28;;
59702;SDS011;45570;48.782;8.332;2022-08-30T06:47:04;6.63;;;5.50;;
59702;SDS011;45570;48.782;8.332;2022-08-30T06:49:33;5.93;;;5.32;;
59702;SDS011;45570;48.782;8.332;2022-08-30T06:52:02;9.93;;;5.78;;
59702;SDS011;45570;48.782;8.332;2022-08-30T06:54:32;6.05;;;5.22;;
59702;SDS011;45570;48.782;8.332;2022-08-30T06:57:00;5.63;;;5.03;;
59702;SDS011;45570;48.782;8.332;2022-08-30T06:59:29;8.57;;;5.35;;
59702;SDS011;45570;48.782;8.332;2022-08-30T07:01:58;5.80;;;5.20;;
59702;SDS011;45570;48.782;8.332;2022-08-30T07:04:29;5.90;;;5.30;;
59702;SDS011;45570;48.782;8.332;2022-08-30T07:06:57;7.60;;;5.50;;
59702;SDS011;45570;48.782;8.332;2022-08-30T07:09:26;6.78;;;5.35;;
59702;SDS011;45570;48.782;8.332;2022-08-30T07:12:00;6.20;;;5.60;;
59702;SDS011;45570;48.782;8.332;2022-08-30T07:14:30;6.70;;;5.88;;
59702;SDS011;45570;48.782;8.332;2022-08-30T07:16:59;7.93;;;4.97;;
59702;SDS011;45570;48.782;8.332;2022-08-30T07:19:29;8.77;;;5.70;;
59702;SDS011;45570;48.782;8.332;2022-08-30T07:21:57;7.53;;;5.53;;
59702;SDS011;45570;48.782;8.332;2022-08-30T07:24:26;5.70;;;5.15;;
59702;SDS011;45570;48.782;8.332;2022-08-30T07:26:55;7.97;;;6.00;;
59702;SDS011;45570;48.782;8.332;2022-08-30T07:29:24;6.60;;;5.60;;
59702;SDS011;45570;48.782;8.332;2022-08-30T07:31:52;5.35;;;4.85;;
59702;SDS011;45570;48.782;8.332;2022-08-30T07:34:21;6.50;;;5.40;;
59702;SDS011;45570;48.782;8.332;2022-08-30T07:36:54;6.70;;;5.25;;
59702;SDS011;45570;48.782;8.332;2022-08-30T07:39:23;9.07;;;5.57;;
59702;SDS011;45570;48.782;8.332;2022-08-30T07:41:52;6.85;;;5.88;;
59702;SDS011;45570;48.782;8.332;2022-08-30T07:44:20;5.78;;;4.97;;
59702;SDS011;45570;48.782;8.332;2022-08-30T07:46:50;6.15;;;5.32;;
59702;SDS011;45570;48.782;8.332;2022-08-30T07:49:19;6.50;;;5.60;;
59702;SDS011;45570;48.782;8.332;2022-08-30T07:51:48;6.30;;;5.70;;
59702;SDS011;45570;48.782;8.332;2022-08-30T07:54:19;6.82;;;5.43;;
59702;SDS011;45570;48.782;8.332;2022-08-30T07:56:48;6.55;;;5.80;;
59702;SDS011;45570;48.782;8.332;2022-08-30T07:59:16;5.57;;;5.07;;
59702;SDS011;45570;48.782;8.332;2022-08-30T08:01:45;8.65;;;5.25;;
59702;SDS011;45570;48.782;8.332;2022-08-30T08:04:14;8.57;;;6.10;;
59702;SDS011;45570;48.782;8.332;2022-08-30T08:06:43;5.88;;;5.00;;
59702;SDS011;45570;48.782;8.332;2022-08-30T08:09:12;8.82;;;5.55;;
59702;SDS011;45570;48.782;8.332;2022-08-30T08:11:42;5.60;;;5.10;;
59702;SDS011;45570;48.782;8.332;2022-08-30T08:14:12;5.93;;;4.80;;
59702;SDS011;45570;48.782;8.332;2022-08-30T08:16:45;5.93;;;5.43;;
59702;SDS011;45570;48.782;8.332;2022-08-30T08:19:14;6.53;;;5.05;;
59702;SDS011;45570;48.782;8.332;2022-08-30T08:21:45;6.82;;;4.78;;
59702;SDS011;45570;48.782;8.332;2022-08-30T08:24:25;6.00;;;4.32;;
59702;SDS011;45570;48.782;8.332;2022-08-30T08:26:55;5.93;;;5.35;;
59702;SDS011;45570;48.782;8.332;2022-08-30T08:29:24;8.43;;;4.90;;
59702;SDS011;45570;48.782;8.332;2022-08-30T08:31:53;4.75;;;4.28;;
59702;SDS011;45570;48.782;8.332;2022-08-30T08:34:23;8.57;;;4.43;;
59702;SDS011;45570;48.782;8.332;2022-08-30T08:36:52;4.85;;;4.13;;
59702;SDS011;45570;48.782;8.332;2022-08-30T08:39:21;4.97;;;4.47;;
59702;SDS011;45570;48.782;8.332;2022-08-30T08:41:52;5.65;;;4.65;;
59702;SDS011;45570;48.782;8.332;2022-08-30T08:44:36;5.68;;;4.40;;
59702;SDS011;45570;48.782;8.332;2022-08-30T08:47:20;5.60;;;4.43;;
59702;SDS011;45570;48.782;8.332;2022-08-30T08:49:57;4.95;;;4.35;;
59702;SDS011;45570;48.782;8.332;2022-08-30T08:52:32;7.95;;;4.43;;
59702;SDS011;45570;48.782;8.332;2022-08-30T08:55:27;6.80;;;4.65;;
59702;SDS011;45570;48.782;8.332;2022-08-30T08:57:58;5.93;;;4.18;;
59702;SDS011;45570;48.782;8.332;2022-08-30T09:00:28;5.10;;;4.60;;
59702;SDS011;45570;48.782;8.332;2022-08-30T09:02:59;4.85;;;4.45;;
59702;SDS011;45570;48.782;8.332;2022-08-30T09:05:33;7.88;;;4.68;;
59702;SDS011;45570;48.782;8.332;2022-08-30T09:08:06;5.55;;;5.03;;
59702;SDS011;45570;48.782;8.332;2022-08-30T09:10:40;5.70;;;4.72;;
59702;SDS011;45570;48.782;8.332;2022-08-30T09:13:18;7.68;;;4.90;;
59702;SDS011;45570;48.782;8.332;2022-08-30T09:15:49;5.00;;;4.53;;
59702;SDS011;45570;48.782;8.332;2022-08-30T09:18:38;6.65;;;4.57;;
59702;SDS011;45570;48.782;8.332;2022-08-30T09:21:29;5.30;;;4.03;;
59702;SDS011;45570;48.782;8.332;2022-08-30T09:23:58;5.00;;;4.55;;
59702;SDS011;45570;48.782;8.332;2022-08-30T09:26:31;5.00;;;4.50;;
59702;SDS011;45570;48.782;8.332;2022-08-30T09:29:04;4.95;;;4.55;;
59702;SDS011;45570;48.782;8.332;2022-08-30T09:31:44;4.70;;;4.30;;
59702;SDS011;45570;48.782;8.332;2022-08-30T09:34:29;4.82;;;4.32;;
59702;SDS011;45570;48.782;8.332;2022-08-30T09:37:00;5.75;;;4.40;;
59702;SDS011;45570;48.782;8.332;2022-08-30T09:39:30;4.30;;;3.90;;
59702;SDS011;45570;48.782;8.332;2022-08-30T09:42:09;5.20;;;4.63;;
59702;SDS011;45570;48.782;8.332;2022-08-30T09:44:42;5.40;;;4.90;;
59702;SDS011;45570;48.782;8.332;2022-08-30T09:47:17;5.03;;;4.53;;
59702;SDS011;45570;48.782;8.332;2022-08-30T09:49:50;7.40;;;5.15;;
59702;SDS011;45570;48.782;8.332;2022-08-30T09:52:33;5.00;;;4.50;;
59702;SDS011;45570;48.782;8.332;2022-08-30T09:55:24;4.57;;;4.10;;
59702;SDS011;45570;48.782;8.332;2022-08-30T09:58:06;5.30;;;4.20;;
59702;SDS011;45570;48.782;8.332;2022-08-30T10:00:46;5.28;;;4.25;;
59702;SDS011;45570;48.782;8.332;2022-08-30T10:03:26;4.63;;;4.22;;
59702;SDS011;45570;48.782;8.332;2022-08-30T10:06:12;4.75;;;4.30;;
59702;SDS011;45570;48.782;8.332;2022-08-30T10:08:57;5.15;;;4.65;;
59702;SDS011;45570;48.782;8.332;2022-08-30T10:11:35;5.40;;;4.90;;
59702;SDS011;45570;48.782;8.332;2022-08-30T10:14:24;4.28;;;3.95;;
59702;SDS011;45570;48.782;8.332;2022-08-30T10:17:08;4.63;;;4.00;;
59702;SDS011;45570;48.782;8.332;2022-08-30T10:19:56;6.40;;;4.38;;
59702;SDS011;45570;48.782;8.332;2022-08-30T10:22:33;5.05;;;4.13;;
59702;SDS011;45570;48.782;8.332;2022-08-30T10:25:09;5.95;;;4.10;;
59702;SDS011;45570;48.782;8.332;2022-08-30T10:27:42;5.00;;;4.50;;
59702;SDS011;45570;48.782;8.332;2022-08-30T10:30:14;5.05;;;4.55;;
59702;SDS011;45570;48.782;8.332;2022-08-30T10:32:47;4.60;;;4.20;;
59702;SDS011;45570;48.782;8.332;2022-08-30T10:35:21;4.68;;;4.25;;
59702;SDS011;45570;48.782;8.332;2022-08-30T10:37:52;7.25;;;4.07;;
59702;SDS011;45570;48.782;8.332;2022-08-30T10:40:28;6.45;;;3.88;;
59702;SDS011;45570;48.782;8.332;2022-08-30T10:43:19;6.25;;;4.10;;
59702;SDS011;45570;48.782;8.332;2022-08-30T10:45:52;8.82;;;4.60;;
59702;SDS011;45570;48.782;8.332;2022-08-30T10:48:29;4.43;;;4.03;;
59702;SDS011;45570;48.782;8.332;2022-08-30T10:51:07;5.72;;;3.60;;
59702;SDS011;45570;48.782;8.332;2022-08-30T10:53:39;4.70;;;4.22;;
59702;SDS011;45570;48.782;8.332;2022-08-30T10:56:11;3.90;;;3.60;;
59702;SDS011;45570;48.782;8.332;2022-08-30T10:58:44;4.47;;;4.07;;
59702;SDS011;45570;48.782;8.332;2022-08-30T11:01:21;4.30;;;3.90;;
59702;SDS011;45570;48.782;8.332;2022-08-30T11:04:26;4.05;;;3.72;;
59702;SDS011;45570;48.782;8.332;2022-08-30T11:07:14;4.55;;;4.22;;
59702;SDS011;45570;48.782;8.332;2022-08-30T11:10:01;3.90;;;3.60;;
59702;SDS011;45570;48.782;8.332;2022-08-30T11:12:49;4.35;;;3.95;;
59702;SDS011;45570;48.782;8.332;2022-08-30T11:15:27;5.68;;;4.25;;
59702;SDS011;45570;48.782;8.332;2022-08-30T11:17:59;4.15;;;3.75;;
59702;SDS011;45570;48.782;8.332;2022-08-30T11:20:34;5.20;;;4.28;;
59702;SDS011;45570;48.782;8.332;2022-08-30T11:23:13;8.30;;;4.22;;
59702;SDS011;45570;48.782;8.332;2022-08-30T11:25:50;4.30;;;3.90;;
59702;SDS011;45570;48.782;8.332;2022-08-30T11:31:38;5.88;;;4.57;;
59702;SDS011;45570;48.782;8.332;2022-08-30T11:34:10;4.10;;;3.70;;
59702;SDS011;45570;48.782;8.332;2022-08-30T11:39:42;5.22;;;3.97;;
59702;SDS011;45570;48.782;8.332;2022-08-30T11:42:25;4.07;;;3.78;;
59702;SDS011;45570;48.782;8.332;2022-08-30T11:51:32;5.50;;;3.67;;
59702;SDS011;45570;48.782;8.332;2022-08-30T11:54:34;6.72;;;4.65;;
59702;SDS011;45570;48.782;8.332;2022-08-30T11:57:10;5.85;;;3.65;;
59702;SDS011;45570;48.782;8.332;2022-08-30T11:59:50;4.30;;;3.88;;
59702;SDS011;45570;48.782;8.332;2022-08-30T12:02:45;5.28;;;4.05;;
59702;SDS011;45570;48.782;8.332;2022-08-30T12:14:32;5.03;;;3.90;;
59702;SDS011;45570;48.782;8.332;2022-08-30T12:17:11;6.43;;;4.38;;
59702;SDS011;45570;48.782;8.332;2022-08-30T12:20:21;7.30;;;4.32;;
59702;SDS011;45570;48.782;8.332;2022-08-30T12:22:51;6.20;;;4.03;;
59702;SDS011;45570;48.782;8.332;2022-08-30T12:25:23;6.18;;;4.30;;
59702;SDS011;45570;48.782;8.332;2022-08-30T12:30:38;7.07;;;4.07;;
59702;SDS011;45570;48.782;8.332;2022-08-30T12:33:08;4.40;;;4.00;;
59702;SDS011;45570;48.782;8.332;2022-08-30T12:35:41;4.30;;;3.75;;
59702;SDS011;45570;48.782;8.332;2022-08-30T12:38:12;4.20;;;3.80;;
59702;SDS011;45570;48.782;8.332;2022-08-30T12:40:48;4.50;;;3.92;;
59702;SDS011;45570;48.782;8.332;2022-08-30T12:43:21;4.10;;;3.80;;
59702;SDS011;45570;48.782;8.332;2022-08-30T12:45:53;3.95;;;3.63;;
59702;SDS011;45570;48.782;8.332;2022-08-30T12:48:33;4.70;;;4.20;;
59702;SDS011;45570;48.782;8.332;2022-08-30T12:51:03;5.50;;;4.30;;
59702;SDS011;45570;48.782;8.332;2022-08-30T12:53:34;4.88;;;3.90;;
59702;SDS011;45570;48.782;8.332;2022-08-30T12:56:06;8.98;;;4.50;;
59702;SDS011;45570;48.782;8.332;2022-08-30T12:58:40;3.63;;;3.33;;
59702;SDS011;45570;48.782;8.332;2022-08-30T13:01:12;4.03;;;3.63;;
59702;SDS011;45570;48.782;8.332;2022-08-30T13:03:52;6.72;;;4.32;;
59702;SDS011;45570;48.782;8.332;2022-08-30T13:06:35;4.93;;;4.03;;
59702;SDS011;45570;48.782;8.332;2022-08-30T13:09:04;4.95;;;4.00;;
59702;SDS011;45570;48.782;8.332;2022-08-30T13:11:33;3.80;;;3.47;;
59702;SDS011;45570;48.782;8.332;2022-08-30T13:14:19;4.60;;;4.03;;
59702;SDS011;45570;48.782;8.332;2022-08-30T13:16:57;4.38;;;3.78;;
59702;SDS011;45570;48.782;8.332;2022-08-30T13:19:33;4.07;;;3.67;;
59702;SDS011;45570;48.782;8.332;2022-08-30T13:22:03;4.07;;;3.67;;
59702;SDS011;45570;48.782;8.332;2022-08-30T13:24:33;4.30;;;3.90;;
59702;SDS011;45570;48.782;8.332;2022-08-30T13:27:02;5.68;;;4.35;;
59702;SDS011;45570;48.782;8.332;2022-08-30T13:29:35;4.55;;;3.53;;
59702;SDS011;45570;48.782;8.332;2022-08-30T13:32:05;4.35;;;4.03;;
59702;SDS011;45570;48.782;8.332;2022-08-30T13:34:34;4.40;;;3.88;;
59702;SDS011;45570;48.782;8.332;2022-08-30T13:37:04;4.60;;;4.18;;
59702;SDS011;45570;48.782;8.332;2022-08-30T13:39:54;3.83;;;3.40;;
59702;SDS011;45570;48.782;8.332;2022-08-30T13:44:58;6.22;;;3.88;;
59702;SDS011;45570;48.782;8.332;2022-08-30T13:47:29;5.07;;;4.45;;
59702;SDS011;45570;48.782;8.332;2022-08-30T13:50:00;4.45;;;4.00;;
59702;SDS011;45570;48.782;8.332;2022-08-30T13:52:29;5.70;;;3.83;;
59702;SDS011;45570;48.782;8.332;2022-08-30T13:55:00;5.18;;;3.95;;
59702;SDS011;45570;48.782;8.332;2022-08-30T13:57:30;6.00;;;4.20;;
59702;SDS011;45570;48.782;8.332;2022-08-30T14:00:19;4.22;;;3.83;;
59702;SDS011;45570;48.782;8.332;2022-08-30T14:02:50;4.93;;;4.40;;
59702;SDS011;45570;48.782;8.332;2022-08-30T14:05:26;4.25;;;3.90;;
59702;SDS011;45570;48.782;8.332;2022-08-30T14:08:17;5.35;;;4.28;;
59702;SDS011;45570;48.782;8.332;2022-08-30T14:11:06;4.40;;;4.00;;
59702;SDS011;45570;48.782;8.332;2022-08-30T14:13:37;5.93;;;4.28;;
59702;SDS011;45570;48.782;8.332;2022-08-30T14:16:28;3.95;;;3.65;;
59702;SDS011;45570;48.782;8.332;2022-08-30T14:18:59;5.07;;;4.10;;
59702;SDS011;45570;48.782;8.332;2022-08-30T14:21:28;5.80;;;3.80;;
59702;SDS011;45570;48.782;8.332;2022-08-30T14:23:57;4.13;;;3.80;;
59702;SDS011;45570;48.782;8.332;2022-08-30T14:26:28;4.80;;;4.10;;
59702;SDS011;45570;48.782;8.332;2022-08-30T14:28:59;4.68;;;4.05;;
59702;SDS011;45570;48.782;8.332;2022-08-30T14:31:28;8.27;;;3.90;;
59702;SDS011;45570;48.782;8.332;2022-08-30T14:34:01;4.10;;;3.70;;
59702;SDS011;45570;48.782;8.332;2022-08-30T14:36:31;7.03;;;4.10;;
59702;SDS011;45570;48.782;8.332;2022-08-30T14:39:00;4.38;;;4.03;;
59702;SDS011;45570;48.782;8.332;2022-08-30T14:41:34;4.60;;;3.85;;
59702;SDS011;45570;48.782;8.332;2022-08-30T14:44:08;4.28;;;3.88;;
59702;SDS011;45570;48.782;8.332;2022-08-30T14:46:37;4.28;;;3.90;;
59702;SDS011;45570;48.782;8.332;2022-08-30T14:49:09;5.03;;;3.67;;
59702;SDS011;45570;48.782;8.332;2022-08-30T14:51:38;4.50;;;4.10;;
59702;SDS011;45570;48.782;8.332;2022-08-30T14:54:08;5.22;;;3.60;;
59702;SDS011;45570;48.782;8.332;2022-08-30T14:56:37;4.75;;;4.25;;
59702;SDS011;45570;48.782;8.332;2022-08-30T14:59:06;10.32;;;4.38;;
59702;SDS011;45570;48.782;8.332;2022-08-30T15:01:39;4.32;;;4.03;;
59702;SDS011;45570;48.782;8.332;2022-08-30T15:04:10;5.22;;;4.70;;
59702;SDS011;45570;48.782;8.332;2022-08-30T15:06:40;5.00;;;3.95;;
59702;SDS011;45570;48.782;8.332;2022-08-30T15:09:11;4.20;;;3.90;;
59702;SDS011;45570;48.782;8.332;2022-08-30T15:11:41;4.13;;;3.83;;
59702;SDS011;45570;48.782;8.332;2022-08-30T15:14:12;3.78;;;3.47;;
59702;SDS011;45570;48.782;8.332;2022-08-30T15:16:42;6.55;;;4.18;;
59702;SDS011;45570;48.782;8.332;2022-08-30T15:19:13;4.55;;;4.15;;
59702;SDS011;45570;48.782;8.332;2022-08-30T15:21:42;5.47;;;3.97;;
59702;SDS011;45570;48.782;8.332;2022-08-30T15:24:14;5.95;;;4.30;;
59702;SDS011;45570;48.782;8.332;2022-08-30T15:26:44;5.50;;;3.67;;
59702;SDS011;45570;48.782;8.332;2022-08-30T15:29:14;4.45;;;4.15;;
59702;SDS011;45570;48.782;8.332;2022-08-30T15:31:44;4.30;;;3.90;;
59702;SDS011;45570;48.782;8.332;2022-08-30T15:34:18;4.13;;;3.72;;
59702;SDS011;45570;48.782;8.332;2022-08-30T15:36:53;4.68;;;4.28;;
59702;SDS011;45570;48.782;8.332;2022-08-30T15:39:22;5.35;;;4.05;;
59702;SDS011;45570;48.782;8.332;2022-08-30T15:41:51;5.53;;;3.88;;
59702;SDS011;45570;48.782;8.332;2022-08-30T15:44:26;4.43;;;4.05;;
59702;SDS011;45570;48.782;8.332;2022-08-30T15:46:55;4.97;;;3.97;;
59702;SDS011;45570;48.782;8.332;2022-08-30T15:49:25;4.40;;;4.00;;
59702;SDS011;45570;48.782;8.332;2022-08-30T15:51:54;4.10;;;3.80;;
59702;SDS011;45570;48.782;8.332;2022-08-30T15:54:28;4.20;;;3.65;;
59702;SDS011;45570;48.782;8.332;2022-08-30T15:56:57;5.57;;;3.63;;
59702;SDS011;45570;48.782;8.332;2022-08-30T15:59:27;5.13;;;3.83;;
59702;SDS011;45570;48.782;8.332;2022-08-30T16:01:58;4.18;;;3.78;;
59702;SDS011;45570;48.782;8.332;2022-08-30T16:04:28;4.30;;;3.92;;
59702;SDS011;45570;48.782;8.332;2022-08-30T16:06:57;5.15;;;3.63;;
59702;SDS011;45570;48.782;8.332;2022-08-30T16:09:26;4.50;;;3.92;;
59702;SDS011;45570;48.782;8.332;2022-08-30T16:11:58;4.60;;;4.20;;
59702;SDS011;45570;48.782;8.332;2022-08-30T16:14:27;5.07;;;3.92;;
59702;SDS011;45570;48.782;8.332;2022-08-30T16:16:56;7.43;;;3.97;;
59702;SDS011;45570;48.782;8.332;2022-08-30T16:19:25;4.40;;;4.00;;
59702;SDS011;45570;48.782;8.332;2022-08-30T16:21:56;4.45;;;4.05;;
59702;SDS011;45570;48.782;8.332;2022-08-30T16:24:25;5.50;;;3.90;;
59702;SDS011;45570;48.782;8.332;2022-08-30T16:26:54;4.88;;;3.83;;
59702;SDS011;45570;48.782;8.332;2022-08-30T16:29:23;5.13;;;3.50;;
59702;SDS011;45570;48.782;8.332;2022-08-30T16:31:52;7.32;;;4.15;;
59702;SDS011;45570;48.782;8.332;2022-08-30T16:34:21;5.10;;;3.92;;
59702;SDS011;45570;48.782;8.332;2022-08-30T16:36:51;9.35;;;4.30;;
59702;SDS011;45570;48.782;8.332;2022-08-30T16:39:21;3.97;;;3.67;;
59702;SDS011;45570;48.782;8.332;2022-08-30T16:41:50;6.97;;;4.03;;
59702;SDS011;45570;48.782;8.332;2022-08-30T16:44:19;4.50;;;3.63;;
59702;SDS011;45570;48.782;8.332;2022-08-30T16:46:55;4.57;;;3.42;;
59702;SDS011;45570;48.782;8.332;2022-08-30T16:49:24;5.35;;;4.22;;
59702;SDS011;45570;48.782;8.332;2022-08-30T16:51:53;4.35;;;3.95;;
59702;SDS011;45570;48.782;8.332;2022-08-30T16:54:23;4.07;;;3.63;;
59702;SDS011;45570;48.782;8.332;2022-08-30T16:56:52;7.25;;;3.90;;
59702;SDS011;45570;48.782;8.332;2022-08-30T16:59:21;4.43;;;3.97;;
59702;SDS011;45570;48.782;8.332;2022-08-30T17:01:50;6.30;;;4.00;;
59702;SDS011;45570;48.782;8.332;2022-08-30T17:04:19;4.82;;;3.92;;
59702;SDS011;45570;48.782;8.332;2022-08-30T17:06:48;4.30;;;3.85;;
59702;SDS011;45570;48.782;8.332;2022-08-30T17:09:17;4.80;;;3.90;;
59702;SDS011;45570;48.782;8.332;2022-08-30T17:11:49;4.45;;;3.80;;
59702;SDS011;45570;48.782;8.332;2022-08-30T17:14:18;4.85;;;3.67;;
59702;SDS011;45570;48.782;8.332;2022-08-30T17:16:54;4.70;;;4.00;;
59702;SDS011;45570;48.782;8.332;2022-08-30T17:19:26;4.80;;;3.95;;
59702;SDS011;45570;48.782;8.332;2022-08-30T17:21:55;4.22;;;3.40;;
59702;SDS011;45570;48.782;8.332;2022-08-30T17:24:24;3.83;;;3.50;;
59702;SDS011;45570;48.782;8.332;2022-08-30T17:26:55;3.50;;;3.15;;
59702;SDS011;45570;48.782;8.332;2022-08-30T17:29:24;5.15;;;3.40;;
59702;SDS011;45570;48.782;8.332;2022-08-30T17:31:53;4.45;;;3.80;;
59702;SDS011;45570;48.782;8.332;2022-08-30T17:34:23;6.95;;;3.88;;
59702;SDS011;45570;48.782;8.332;2022-08-30T17:36:53;4.28;;;3.78;;
59702;SDS011;45570;48.782;8.332;2022-08-30T17:39:25;7.38;;;3.60;;
59702;SDS011;45570;48.782;8.332;2022-08-30T17:41:56;4.22;;;3.67;;
59702;SDS011;45570;48.782;8.332;2022-08-30T17:44:26;4.22;;;3.83;;
59702;SDS011;45570;48.782;8.332;2022-08-30T17:46:55;5.55;;;3.78;;
59702;SDS011;45570;48.782;8.332;2022-08-30T17:49:25;4.20;;;3.80;;
59702;SDS011;45570;48.782;8.332;2022-08-30T17:51:55;3.83;;;3.53;;
59702;SDS011;45570;48.782;8.332;2022-08-30T17:54:26;4.45;;;3.95;;
59702;SDS011;45570;48.782;8.332;2022-08-30T17:56:57;3.72;;;3.42;;
59702;SDS011;45570;48.782;8.332;2022-08-30T17:59:26;6.15;;;4.10;;
59702;SDS011;45570;48.782;8.332;2022-08-30T18:01:58;4.07;;;3.60;;
59702;SDS011;45570;48.782;8.332;2022-08-30T18:04:28;4.88;;;4.10;;
59702;SDS011;45570;48.782;8.332;2022-08-30T18:06:57;4.95;;;4.05;;
59702;SDS011;45570;48.782;8.332;2022-08-30T18:09:26;11.68;;;4.38;;
59702;SDS011;45570;48.782;8.332;2022-08-30T18:12:01;4.60;;;4.10;;
59702;SDS011;45570;48.782;8.332;2022-08-30T18:14:32;4.40;;;4.00;;
59702;SDS011;45570;48.782;8.332;2022-08-30T18:17:05;3.72;;;3.42;;
59702;SDS011;45570;48.782;8.332;2022-08-30T18:19:34;7.72;;;4.22;;
59702;SDS011;45570;48.782;8.332;2022-08-30T18:22:12;8.48;;;4.90;;
59702;SDS011;45570;48.782;8.332;2022-08-30T18:24:43;6.55;;;3.85;;
59702;SDS011;45570;48.782;8.332;2022-08-30T18:27:13;3.88;;;3.40;;
59702;SDS011;45570;48.782;8.332;2022-08-30T18:29:42;6.68;;;3.50;;
59702;SDS011;45570;48.782;8.332;2022-08-30T18:32:11;6.00;;;4.03;;
59702;SDS011;45570;48.782;8.332;2022-08-30T18:34:40;3.83;;;3.42;;
59702;SDS011;45570;48.782;8.332;2022-08-30T18:37:12;6.45;;;4.00;;
59702;SDS011;45570;48.782;8.332;2022-08-30T18:39:42;4.95;;;3.55;;
59702;SDS011;45570;48.782;8.332;2022-08-30T18:42:14;4.10;;;3.67;;
59702;SDS011;45570;48.782;8.332;2022-08-30T18:44:43;4.00;;;3.47;;
59702;SDS011;45570;48.782;8.332;2022-08-30T18:47:11;4.65;;;3.55;;
59702;SDS011;45570;48.782;8.332;2022-08-30T18:49:41;6.45;;;3.80;;
59702;SDS011;45570;48.782;8.332;2022-08-30T18:52:10;4.75;;;3.75;;
59702;SDS011;45570;48.782;8.332;2022-08-30T18:54:40;4.07;;;3.70;;
59702;SDS011;45570;48.782;8.332;2022-08-30T18:57:19;5.95;;;4.15;;
59702;SDS011;45570;48.782;8.332;2022-08-30T18:59:49;5.40;;;4.07;;
59702;SDS011;45570;48.782;8.332;2022-08-30T19:02:18;6.00;;;3.90;;
59702;SDS011;45570;48.782;8.332;2022-08-30T19:04:53;5.78;;;4.05;;
59702;SDS011;45570;48.782;8.332;2022-08-30T19:07:22;8.65;;;4.45;;
59702;SDS011;45570;48.782;8.332;2022-08-30T19:09:59;5.07;;;4.20;;
59702;SDS011;45570;48.782;8.332;2022-08-30T19:12:30;6.45;;;4.35;;
59702;SDS011;45570;48.782;8.332;2022-08-30T19:14:59;5.00;;;3.92;;
59702;SDS011;45570;48.782;8.332;2022-08-30T19:17:37;4.70;;;4.28;;
59702;SDS011;45570;48.782;8.332;2022-08-30T19:20:07;5.18;;;3.95;;
59702;SDS011;45570;48.782;8.332;2022-08-30T19:28:20;4.80;;;3.60;;
59702;SDS011;45570;48.782;8.332;2022-08-30T19:30:50;4.45;;;3.88;;
59702;SDS011;45570;48.782;8.332;2022-08-30T19:33:20;3.85;;;3.50;;
59702;SDS011;45570;48.782;8.332;2022-08-30T19:35:49;3.85;;;3.45;;
59702;SDS011;45570;48.782;8.332;2022-08-30T19:38:18;4.25;;;3.33;;
59702;SDS011;45570;48.782;8.332;2022-08-30T19:40:47;4.97;;;3.67;;
59702;SDS011;45570;48.782;8.332;2022-08-30T19:43:20;5.15;;;3.60;;
59702;SDS011;45570;48.782;8.332;2022-08-30T19:45:51;3.55;;;3.25;;
59702;SDS011;45570;48.782;8.332;2022-08-30T19:48:21;8.82;;;3.50;;
59702;SDS011;45570;48.782;8.332;2022-08-30T19:50:57;6.57;;;3.28;;
59702;SDS011;45570;48.782;8.332;2022-08-30T19:53:27;4.45;;;3.40;;
59702;SDS011;45570;48.782;8.332;2022-08-30T19:55:57;4.07;;;3.60;;
59702;SDS011;45570;48.782;8.332;2022-08-30T19:58:26;4.00;;;3.60;;
59702;SDS011;45570;48.782;8.332;2022-08-30T20:00:55;5.78;;;3.97;;
59702;SDS011;45570;48.782;8.332;2022-08-30T20:03:37;4.18;;;3.35;;
59702;SDS011;45570;48.782;8.332;2022-08-30T20:06:06;5.70;;;3.70;;
59702;SDS011;45570;48.782;8.332;2022-08-30T20:08:35;4.47;;;3.88;;
59702;SDS011;45570;48.782;8.332;2022-08-30T20:11:06;3.83;;;3.42;;
59702;SDS011;45570;48.782;8.332;2022-08-30T20:13:39;4.03;;;3.42;;
59702;SDS011;45570;48.782;8.332;2022-08-30T20:16:08;4.03;;;3.65;;
59702;SDS011;45570;48.782;8.332;2022-08-30T20:18:39;3.40;;;3.10;;
59702;SDS011;45570;48.782;8.332;2022-08-30T20:21:09;4.22;;;3.58;;
59702;SDS011;45570;48.782;8.332;2022-08-30T20:23:40;4.00;;;3.63;;
59702;SDS011;45570;48.782;8.332;2022-08-30T20:26:10;5.32;;;4.15;;
59702;SDS011;45570;48.782;8.332;2022-08-30T20:28:40;5.20;;;3.90;;
59702;SDS011;45570;48.782;8.332;2022-08-30T20:31:09;5.07;;;3.80;;
59702;SDS011;45570;48.782;8.332;2022-08-30T20:33:38;5.22;;;3.70;;
59702;SDS011;45570;48.782;8.332;2022-08-30T20:36:07;5.25;;;3.78;;
59702;SDS011;45570;48.782;8.332;2022-08-30T20:38:37;3.80;;;3.50;;
59702;SDS011;45570;48.782;8.332;2022-08-30T20:41:07;3.90;;;3.50;;
59702;SDS011;45570;48.782;8.332;2022-08-30T20:43:39;4.57;;;4.05;;
59702;SDS011;45570;48.782;8.332;2022-08-30T20:46:08;4.07;;;3.50;;
59702;SDS011;45570;48.782;8.332;2022-08-30T20:48:38;6.22;;;4.60;;
59702;SDS011;45570;48.782;8.332;2022-08-30T20:51:08;4.45;;;3.72;;
59702;SDS011;45570;48.782;8.332;2022-08-30T20:53:40;4.63;;;4.13;;
59702;SDS011;45570;48.782;8.332;2022-08-30T20:56:09;4.15;;;3.72;;
59702;SDS011;45570;48.782;8.332;2022-08-30T20:58:40;5.95;;;4.18;;
59702;SDS011;45570;48.782;8.332;2022-08-30T21:01:10;4.97;;;3.85;;
59702;SDS011;45570;48.782;8.332;2022-08-30T21:03:40;4.55;;;3.80;;
59702;SDS011;45570;48.782;8.332;2022-08-30T21:06:10;5.50;;;3.80;;
59702;SDS011;45570;48.782;8.332;2022-08-30T21:08:40;5.18;;;3.80;;
59702;SDS011;45570;48.782;8.332;2022-08-30T21:11:09;4.07;;;3.45;;
59702;SDS011;45570;48.782;8.332;2022-08-30T21:13:38;4.22;;;3.80;;
59702;SDS011;45570;48.782;8.332;2022-08-30T21:16:08;7.38;;;4.18;;
59702;SDS011;45570;48.782;8.332;2022-08-30T21:18:37;4.75;;;3.95;;
